Date,TemperatureHighF,TemperatureAvgF,TemperatureLowF,DewpointHighF,DewpointAvgF,DewpointLowF,HumidityHigh,HumidityAvg,HumidityLow,PressureMaxIn,PressureMinIn,WindSpeedMaxMPH,WindSpeedAvgMPH,GustSpeedMaxMPH,PrecipitationSumIn
2014-1-1,40.6,35.8,30.2,28.2,17.5,6.7,72,47,30,30.33,30.08,4,1,8,0.00
2014-1-2,42.2,35.4,13.8,41.4,33.2,8.5,98,92,72,30.09,29.62,14,2,24,0.29
2014-1-3,25.0,16.4,7.2,8.8,3.5,-1.6,84,58,36,30.43,29.83,14,4,22,0.00
2014-1-4,41.9,29.9,19.4,38.1,10.1,-99.9,87,50,16,30.44,30.20,13,-15,20,0.01
2014-1-5,48.5,45.8,41.6,45.0,42.3,38.3,95,88,76,30.20,29.57,12,2,27,0.27
2014-1-6,46.2,16.3,-3.9,45.0,11.8,-9.9,96,82,63,30.18,29.55,13,3,20,0.08
2014-1-7,19.3,6.2,-6.9,6.6,-2.7,-10.8,86,67,48,30.56,30.18,10,1,12,0.00
2014-1-8,38.8,28.6,12.5,15.3,10.8,2.2,72,48,36,30.60,30.45,4,1,6,0.01
2014-1-9,48.7,38.4,31.7,38.5,20.2,-3.3,97,53,17,30.46,30.33,11,1,12,0.02
2014-1-10,53.4,47.7,38.3,51.9,46.8,37.5,99,97,92,30.33,29.92,9,1,18,0.39
2014-1-11,54.5,48.6,36.2,52.8,42.9,4.5,97,83,20,30.31,29.51,17,3,27,1.23
2014-1-12,48.1,39.3,32.3,27.3,24.6,19.9,75,57,39,30.13,29.72,9,1,17,0.01
2014-1-13,48.2,41.1,36.4,36.5,29.8,23.4,97,65,49,30.11,29.83,9,1,11,0.22
2014-1-14,45.5,39.8,35.9,40.1,32.4,24.1,98,77,49,29.92,29.72,7,1,11,0.13
2014-1-15,36.4,30.6,20.9,29.9,23.9,13.7,94,76,51,29.91,29.82,6,1,12,0.02
2014-1-16,24.0,17.5,14.3,18.5,14.5,11.2,91,88,78,30.02,29.89,2,1,5,0.00
2014-1-17,38.7,30.9,17.8,21.9,16.8,10.0,83,57,33,29.99,29.77,18,3,34,0.00
2014-1-18,30.3,21.2,12.3,12.7,8.2,-0.9,84,60,26,30.06,29.86,16,2,18,0.00
2014-1-19,40.2,33.4,28.0,24.3,18.2,6.5,78,55,28,30.03,29.92,12,2,12,0.00
2014-1-20,49.5,38.2,30.5,22.8,14.1,-1.7,51,39,17,29.98,29.77,18,3,18,0.00
2014-1-21,40.6,29.7,10.7,27.3,20.7,7.6,90,71,48,29.78,29.53,13,3,14,0.00
2014-1-22,23.6,10.7,3.5,7.3,3.7,-0.5,88,75,35,30.02,29.79,9,1,9,0.01
2014-1-23,30.5,22.6,4.0,14.6,7.8,-4.5,67,53,43,30.40,29.84,13,2,13,0.00
2014-1-24,22.4,10.5,-1.7,-0.7,-6.8,-14.6,80,48,26,30.57,30.27,8,1,12,0.00
2014-1-25,27.0,21.1,13.7,20.1,5.4,-16.9,93,57,19,30.26,29.78,16,3,23,0.00
2014-1-26,44.2,33.3,23.9,26.7,19.3,1.1,73,57,35,29.96,29.85,15,2,22,0.02
2014-1-27,43.8,36.0,17.3,34.4,26.8,6.0,87,69,56,29.97,29.81,12,2,15,0.00
2014-1-28,23.7,18.4,14.3,20.8,13.6,4.5,94,82,60,30.12,29.96,4,1,5,0.00
2014-1-29,23.6,13.9,2.4,11.8,4.0,-1.1,91,67,42,30.32,30.12,6,1,9,0.16
2014-1-30,35.6,22.9,11.4,10.1,5.6,-8.0,83,50,17,30.35,30.19,3,1,7,0.04
2014-1-31,49.6,41.2,32.3,16.4,6.0,-9.2,36,23,15,30.21,30.09,8,1,10,0.04
2014-2-1,57.8,47.9,40.7,44.2,24.1,-0.2,86,45,14,30.12,29.98,10,1,13,0.00
2014-2-2,53.0,48.2,41.8,50.5,44.3,33.8,96,86,70,30.03,29.84,13,2,24,0.37
2014-2-3,55.5,48.2,40.4,53.8,45.3,37.7,96,90,73,30.04,29.70,19,2,31,1.06
2014-2-4,53.5,45.6,39.4,49.4,43.2,37.7,97,91,81,30.16,29.90,17,1,19,0.13
2014-2-5,51.2,41.4,24.9,50.7,37.3,22.6,98,86,64,30.02,29.71,23,3,23,0.21
2014-2-6,35.1,25.8,18.6,25.3,21.7,16.9,95,85,63,30.27,30.02,9,1,10,0.00
2014-2-7,41.5,31.1,23.4,29.4,25.2,19.8,96,80,49,30.31,30.19,8,1,10,0.01
2014-2-8,38.5,35.3,32.7,32.8,29.2,26.2,88,78,71,30.21,30.07,6,1,8,0.00
2014-2-9,42.5,35.6,30.5,35.3,31.7,29.0,95,86,72,30.11,29.96,12,2,14,0.00
2014-2-10,36.1,31.6,27.0,34.5,29.9,26.1,97,93,85,30.12,29.98,9,1,19,0.03
2014-2-11,32.8,29.1,27.0,31.2,28.2,25.6,97,96,93,30.23,30.09,3,0,4,0.11
2014-2-12,28.3,24.7,21.5,27.3,23.4,19.9,97,94,90,30.21,29.76,7,1,12,0.00
2014-2-13,35.2,28.2,25.1,30.5,23.3,-99.9,97,86,69,29.79,29.63,12,-12,19,0.00
2014-2-14,47.4,36.5,27.6,31.7,25.4,19.7,94,66,41,29.85,29.59,16,3,21,0.38
2014-2-15,35.5,29.9,24.0,31.6,20.6,5.4,97,71,37,30.03,29.52,8,2,14,0.12
2014-2-16,46.7,36.2,26.2,28.0,24.5,15.3,94,64,45,30.12,30.01,16,2,19,0.01
2014-2-17,47.9,39.8,33.1,35.5,27.4,7.1,96,62,30,30.18,30.02,13,1,17,0.21
2014-2-18,58.1,45.6,34.7,42.5,28.0,9.1,97,56,16,30.17,29.98,12,2,19,0.01
2014-2-19,59.9,52.1,45.6,50.9,45.7,41.4,98,81,54,29.99,29.86,15,2,25,0.80
2014-2-20,61.1,55.7,50.0,52.0,49.2,45.4,89,79,62,29.99,29.77,18,3,30,0.00
2014-2-21,57.2,46.0,36.4,52.3,30.3,-99.9,96,60,26,29.97,29.61,21,-8,23,0.89
2014-2-22,56.6,44.5,35.2,26.2,16.2,3.7,46,33,12,30.14,29.97,8,1,12,0.00
2014-2-23,61.0,50.2,41.4,30.2,23.8,12.7,46,36,25,30.04,29.84,14,2,17,0.00
2014-2-24,52.6,43.0,34.2,33.4,25.7,17.3,82,53,31,30.04,29.85,11,1,15,0.00
2014-2-25,51.6,42.4,33.8,31.5,22.7,17.9,60,46,35,30.01,29.85,12,2,15,0.00
2014-2-26,40.6,30.9,21.0,23.0,19.7,15.8,81,64,43,29.85,29.70,6,1,11,0.00
2014-2-27,21.0,19.9,18.5,16.6,15.9,14.8,86,84,81,29.81,29.79,3,0,5,0.00
2014-2-28,47.1,32.9,20.6,14.9,8.2,-1.3,49,36,22,30.18,29.95,2,1,10,0.00
2014-3-1,51.2,40.8,30.6,35.3,27.3,15.1,83,60,43,30.24,30.14,3,1,13,0.00
2014-3-2,59.8,51.6,43.9,47.3,42.6,35.1,82,72,62,30.18,29.83,4,2,16,0.00
2014-3-3,52.9,42.4,28.5,47.8,39.1,26.9,97,89,73,29.98,29.65,7,3,17,0.63
2014-3-4,45.4,33.8,27.1,35.5,30.8,25.9,98,89,68,30.13,29.98,3,1,9,0.00
2014-3-5,54.4,41.7,31.0,35.0,28.0,18.8,95,64,26,30.11,29.99,5,1,13,0.00
2014-3-6,39.4,34.5,29.9,32.0,23.2,14.0,96,65,39,30.09,29.96,10,2,13,0.03
2014-3-7,47.9,39.1,31.9,39.5,34.8,31.1,97,85,66,30.00,29.90,9,2,14,0.21
2014-3-8,58.7,48.2,37.7,39.8,32.4,25.1,86,58,29,30.05,29.96,11,2,18,0.00
2014-3-9,59.9,49.7,42.8,37.9,32.2,20.8,75,53,32,30.03,29.95,9,2,14,0.00
2014-3-10,62.8,50.4,40.1,39.6,31.4,20.6,79,50,28,30.00,29.82,9,2,15,0.00
2014-3-11,67.6,56.5,45.6,42.5,34.9,26.6,63,46,26,29.84,29.63,11,2,22,0.00
2014-3-12,58.1,47.0,24.5,51.3,42.0,17.4,96,83,57,29.68,29.27,13,3,30,0.11
2014-3-13,38.7,28.8,20.5,18.6,9.6,2.6,80,48,24,30.24,29.68,16,3,21,0.00
2014-3-14,55.2,41.1,27.2,22.8,14.3,1.0,50,34,25,30.27,30.05,16,2,19,0.00
2014-3-15,60.4,49.7,42.9,36.2,30.1,21.9,61,48,31,30.05,29.93,14,2,22,0.00
2014-3-16,49.7,46.4,42.8,46.4,41.3,30.6,97,84,51,29.94,29.55,9,1,13,0.56
2014-3-17,47.5,45.6,42.4,46.5,44.8,41.8,98,97,95,29.71,29.54,5,0,7,0.45
2014-3-18,57.9,45.3,36.5,48.3,41.1,36.0,99,87,59,29.99,29.68,6,1,10,0.01
2014-3-19,59.7,45.9,37.0,43.8,39.4,36.0,97,80,46,30.00,29.88,16,2,19,0.00
2014-3-20,55.7,46.0,38.4,39.4,25.2,11.2,88,51,18,30.02,29.91,12,2,17,0.00
2014-3-21,60.9,47.4,35.4,23.8,18.4,12.8,48,33,15,30.08,29.97,7,1,18,0.00
2014-3-22,61.7,53.3,46.5,39.6,31.9,21.9,64,44,37,30.01,29.88,12,2,18,0.00
2014-3-23,51.6,43.5,31.9,44.3,37.1,23.3,97,79,62,30.04,29.82,9,2,13,0.37
2014-3-24,49.9,36.6,22.4,27.2,20.2,13.0,84,55,24,30.15,29.95,8,2,11,0.00
2014-3-25,36.9,28.9,18.9,30.9,24.2,10.1,96,83,65,30.05,29.77,15,3,20,0.09
2014-3-26,41.7,27.8,15.1,14.5,8.8,3.9,70,47,24,30.30,30.05,13,2,21,0.03
2014-3-27,52.6,40.6,31.2,26.4,14.5,5.4,50,35,22,30.34,30.16,8,2,19,0.00
2014-3-28,49.9,47.4,44.1,49.4,44.5,26.7,98,90,50,30.19,30.00,14,1,17,0.13
2014-3-29,55.2,48.7,33.8,53.5,47.1,29.5,98,94,83,30.01,29.57,12,2,17,0.31
2014-3-30,51.7,39.7,31.6,30.3,19.0,-99.9,92,51,23,30.07,29.76,28,-17,28,0.00
2014-3-31,69.2,54.3,36.7,25.9,13.3,-16.9,49,22,6,30.14,30.00,10,2,12,0.00
2014-4-1,71.2,61.3,52.9,39.2,28.1,17.6,37,28,21,30.04,29.92,15,2,17,0.00
2014-4-2,75.6,64.4,56.1,39.1,29.9,19.8,44,28,20,30.00,29.89,9,2,16,0.00
2014-4-3,77.1,65.3,58.2,53.0,44.2,24.2,75,49,25,29.96,29.75,11,2,19,0.00
2014-4-4,62.4,57.4,50.6,53.7,48.8,43.2,89,73,55,29.81,29.67,16,2,24,0.08
2014-4-5,61.7,48.8,37.6,44.0,35.4,30.4,90,63,31,29.97,29.77,8,2,15,0.00
2014-4-6,58.0,48.5,42.2,41.2,34.0,29.6,95,58,39,30.02,29.88,10,1,13,0.08
2014-4-7,53.3,47.6,39.9,52.2,46.5,39.0,98,96,89,29.91,29.58,10,2,13,1.79
2014-4-8,51.3,43.5,38.3,49.3,36.9,31.7,96,78,62,29.72,29.58,9,2,12,0.00
2014-4-9,54.8,44.1,39.1,36.6,32.1,24.5,90,67,32,30.10,29.72,9,2,16,0.05
2014-4-10,67.2,53.0,39.2,33.5,30.3,27.8,66,44,25,30.20,30.06,10,2,14,0.00
2014-4-11,68.9,58.2,50.0,39.2,33.6,26.1,55,41,24,30.14,29.96,11,2,16,0.00
2014-4-12,73.3,61.2,50.9,46.7,43.2,38.8,76,54,32,30.09,29.97,9,2,14,0.00
2014-4-13,73.4,62.3,54.5,52.0,49.1,46.1,77,63,41,30.03,29.89,12,2,20,0.00
2014-4-14,59.1,56.0,53.9,54.4,51.9,48.8,95,86,76,29.89,29.68,12,2,18,0.49
2014-4-15,55.2,42.9,26.6,53.8,40.1,20.0,98,90,74,29.94,29.52,14,3,24,0.87
2014-4-16,56.5,39.8,25.2,24.9,17.3,3.5,80,43,21,30.30,29.95,11,3,16,0.00
2014-4-17,60.8,45.0,30.9,31.4,23.0,16.6,72,45,19,30.37,30.26,12,1,12,0.00
2014-4-18,52.2,44.6,40.3,43.3,33.3,23.4,94,66,45,30.32,30.11,8,1,12,0.14
2014-4-19,48.5,45.5,42.1,45.8,41.6,38.7,96,86,72,30.16,30.02,14,4,18,0.34
2014-4-20,66.7,53.9,42.9,42.9,35.3,24.0,90,53,21,30.20,30.08,17,2,18,0.01
2014-4-21,72.5,59.3,46.1,41.3,35.9,29.5,57,43,26,30.11,29.85,9,1,12,0.00
2014-4-22,59.6,55.9,54.2,54.9,48.5,39.3,94,77,50,29.85,29.67,9,2,12,0.05
2014-4-23,68.5,56.5,45.0,48.6,31.7,18.0,80,44,15,29.89,29.72,10,2,12,0.00
2014-4-24,71.2,58.7,48.5,40.9,28.8,21.1,57,33,21,29.96,29.82,7,1,13,0.00
2014-4-25,67.2,57.7,51.9,54.4,46.2,36.2,93,66,43,29.84,29.63,18,3,30,0.05
2014-4-26,74.4,61.3,49.0,43.3,35.1,28.5,65,41,19,29.95,29.83,12,2,15,0.00
2014-4-27,79.2,66.7,57.1,55.2,43.3,34.2,86,45,20,29.90,29.76,9,2,21,0.07
2014-4-28,74.0,65.0,55.9,58.3,54.2,50.1,95,71,45,29.83,29.67,10,2,18,0.79
2014-4-29,68.2,61.9,57.6,58.9,55.5,52.6,96,80,65,29.80,29.60,15,3,35,1.47
2014-4-30,67.1,60.1,54.2,56.5,54.3,51.3,93,82,59,29.81,29.70,17,3,27,0.06
2014-5-1,64.5,55.2,45.9,51.5,41.8,29.4,91,64,29,29.82,29.74,10,2,15,0.01
2014-5-2,62.6,51.5,42.9,37.5,33.5,27.2,68,52,29,29.87,29.78,11,2,14,0.00
2014-5-3,66.5,54.5,42.0,38.7,36.0,32.2,75,51,34,29.94,29.82,10,2,15,0.00
2014-5-4,75.4,63.7,52.9,44.7,40.5,37.1,55,44,28,29.98,29.86,13,3,20,0.00
2014-5-5,80.2,68.9,61.6,48.5,43.9,36.4,57,42,23,29.90,29.76,14,3,19,0.00
2014-5-6,80.2,69.6,59.5,49.0,43.4,23.0,62,42,12,29.85,29.76,11,2,16,0.00
2014-5-7,81.4,69.7,60.5,52.0,46.0,38.1,66,45,22,29.98,29.85,8,2,12,0.00
2014-5-8,80.1,68.0,58.2,52.8,48.3,41.0,69,51,30,30.08,29.97,8,1,13,0.00
2014-5-9,69.0,62.2,55.6,58.0,53.4,48.7,95,74,58,30.02,29.92,9,2,16,0.54
2014-5-10,62.9,59.1,55.5,58.2,55.1,52.0,96,87,78,30.02,29.94,6,1,10,0.15
2014-5-11,79.2,65.7,53.4,59.3,53.8,40.4,95,70,26,30.08,29.97,6,1,9,0.00
2014-5-12,80.5,67.6,59.1,62.3,59.1,55.9,93,76,47,30.07,29.99,9,1,10,0.22
2014-5-13,76.6,66.6,62.3,64.2,60.5,56.7,91,81,57,30.03,29.97,6,1,7,0.25
2014-5-14,74.9,65.3,58.3,61.3,56.1,50.0,95,74,43,30.03,29.81,8,2,15,0.39
2014-5-15,67.9,56.2,43.5,61.2,54.1,40.2,98,93,75,29.87,29.74,12,2,22,1.75
2014-5-16,55.8,44.6,36.9,42.1,36.7,30.0,95,75,51,30.06,29.84,9,2,19,0.04
2014-5-17,56.5,46.2,39.4,44.7,37.7,30.0,89,72,51,30.16,30.04,10,2,14,0.02
2014-5-18,57.2,48.7,43.2,50.7,45.7,41.0,98,90,75,30.17,30.10,7,1,10,0.10
2014-5-19,67.9,54.7,43.3,49.8,43.9,38.8,93,70,36,30.22,30.11,10,1,11,0.00
2014-5-20,73.0,61.2,48.8,56.3,50.8,46.4,92,70,47,30.18,30.02,12,2,12,0.00
2014-5-21,74.5,62.5,58.0,58.4,53.8,51.0,80,74,49,30.04,29.98,9,2,16,0.00
2014-5-22,78.8,68.2,61.3,61.5,57.7,53.5,83,70,50,29.99,29.84,3,2,12,0.00
2014-5-23,78.1,67.9,61.8,62.4,57.8,52.7,89,71,54,29.95,29.88,4,2,9,0.00
2014-5-24,77.5,65.4,54.6,55.7,50.0,41.6,87,61,31,30.00,29.90,6,1,11,0.00
2014-5-25,72.2,63.2,56.0,59.3,50.6,30.1,87,64,35,30.07,29.98,5,1,8,0.00
2014-5-26,77.7,66.4,57.7,61.1,57.0,53.9,90,73,47,30.10,29.99,7,1,13,0.00
2014-5-27,77.3,67.2,59.2,64.8,59.2,55.1,95,77,55,30.04,29.90,6,1,11,0.27
2014-5-28,79.5,68.2,60.5,62.5,57.2,52.6,90,70,44,29.95,29.87,4,1,9,0.00
2014-5-29,77.2,65.6,59.4,63.1,57.2,-99.9,90,77,52,29.95,29.88,3,-10,7,0.00
2014-5-30,74.2,63.8,58.5,63.8,58.3,-99.9,96,85,63,29.99,29.93,4,-10,8,0.14
2014-5-31,77.5,65.1,58.0,66.9,60.5,56.7,96,86,59,30.04,29.94,6,1,9,0.13
2014-6-1,66.0,60.8,57.1,59.7,56.9,54.4,97,87,75,30.15,30.04,3,1,8,0.04
2014-6-2,74.0,62.8,52.9,60.7,55.5,50.0,92,78,58,30.15,30.00,4,1,6,0.00
2014-6-3,77.7,64.9,54.5,63.9,58.4,52.6,95,80,59,30.04,29.90,6,1,8,0.00
2014-6-4,79.4,68.7,57.7,65.3,60.9,56.0,95,78,51,29.91,29.71,7,1,9,0.01
2014-6-5,74.4,65.7,62.6,63.9,59.7,-99.9,96,84,66,29.76,29.65,12,-9,18,0.07
2014-6-6,78.2,66.4,59.3,64.6,59.0,-99.9,98,81,59,29.83,29.74,4,-14,8,0.00
2014-6-7,81.1,69.2,60.3,65.4,60.8,57.2,96,77,46,29.87,29.77,5,1,9,0.17
2014-6-8,76.5,67.4,60.7,64.2,60.4,56.6,96,79,57,29.82,29.74,11,1,14,0.05
2014-6-9,76.4,66.7,57.4,63.8,58.8,54.4,95,77,58,29.83,29.75,9,1,17,0.00
2014-6-10,79.9,66.6,57.9,68.5,60.3,55.6,95,81,52,29.87,29.78,13,1,22,0.82
2014-6-11,73.2,63.8,59.2,63.5,57.9,-99.9,96,84,63,29.82,29.71,8,-9,18,0.34
2014-6-12,73.0,62.6,57.5,64.0,59.4,56.4,97,90,63,29.80,29.73,6,0,8,0.20
2014-6-13,75.3,61.4,55.2,65.5,58.0,54.6,99,89,61,29.87,29.75,4,1,9,0.04
2014-6-14,79.5,66.4,56.4,64.2,58.6,54.4,96,78,52,29.96,29.86,6,1,8,0.00
2014-6-15,79.5,69.7,62.5,65.5,61.9,59.0,89,77,55,30.03,29.94,4,1,9,0.00
2014-6-16,82.4,70.2,63.7,68.4,63.5,60.1,93,80,57,30.08,30.00,4,1,6,0.02
2014-6-17,83.2,72.2,63.5,66.1,59.8,-99.9,92,69,38,30.09,29.98,5,-6,12,0.00
2014-6-18,84.8,70.8,64.5,68.0,64.1,60.4,93,81,44,30.03,29.97,3,1,6,0.11
2014-6-19,84.2,69.1,60.8,69.5,62.9,58.1,94,82,55,30.04,29.95,8,1,9,0.33
2014-6-20,82.6,70.8,59.1,69.4,62.0,57.4,96,76,49,30.00,29.85,4,1,8,0.01
2014-6-21,80.7,70.2,63.5,67.1,61.0,56.5,93,74,44,29.86,29.74,4,1,13,0.00
2014-6-22,79.8,69.5,61.3,64.9,59.0,53.0,90,71,44,29.85,29.75,5,1,9,0.00
2014-6-23,77.8,66.1,62.5,66.4,57.7,-99.9,96,79,65,29.97,29.82,8,-24,9,0.42
2014-6-24,72.4,66.4,61.4,67.4,63.2,59.5,95,90,77,29.97,29.88,3,1,7,0.44
2014-6-25,76.9,67.1,62.6,66.0,62.1,60.1,96,85,64,29.94,29.86,6,1,14,0.03
2014-6-26,78.4,67.7,58.4,66.6,60.5,57.4,97,79,52,29.95,29.85,4,1,7,0.23
2014-6-27,77.0,67.8,62.3,67.8,63.2,59.3,95,86,69,30.00,29.88,3,0,4,0.11
2014-6-28,75.3,65.8,62.9,67.1,61.5,-99.9,97,89,72,30.11,29.99,4,-10,8,0.50
2014-6-29,80.4,66.5,59.9,69.3,62.8,57.6,98,89,62,30.13,30.01,5,1,12,0.56
2014-6-30,76.2,66.6,59.9,68.4,63.4,58.2,98,90,71,30.03,29.88,6,1,9,0.08
2014-7-1,83.3,73.2,63.8,68.6,65.1,62.6,97,78,55,29.90,29.76,5,1,9,0.00
2014-7-2,85.1,74.6,64.7,69.8,65.0,59.8,92,74,44,29.85,29.79,6,1,7,0.00
2014-7-3,82.2,70.4,60.0,68.0,62.5,52.3,96,77,51,29.89,29.78,5,1,8,0.00
2014-7-4,69.2,61.6,54.9,54.6,51.4,46.5,88,71,45,30.13,29.89,7,2,11,0.00
2014-7-5,78.2,65.0,53.9,58.7,53.4,47.7,83,67,45,30.18,30.07,5,1,7,0.00
2014-7-6,77.8,66.5,56.6,60.0,55.6,51.3,89,70,44,30.09,29.95,4,1,7,0.00
2014-7-7,80.0,68.9,61.4,65.1,60.6,57.2,92,76,56,29.97,29.83,8,1,12,0.00
2014-7-8,76.6,67.5,62.3,66.0,59.1,-99.9,95,77,63,29.93,29.83,9,-9,15,0.10
2014-7-9,74.3,67.4,60.7,65.8,62.3,58.7,97,84,64,29.95,29.86,7,1,12,1.13
2014-7-10,79.2,67.4,59.6,68.8,62.3,58.8,98,85,57,30.01,29.90,8,1,8,0.02
2014-7-11,83.1,70.4,61.6,67.5,61.5,55.1,91,75,39,30.07,29.98,4,1,11,0.00
2014-7-12,81.0,70.1,63.3,68.1,64.7,60.9,95,84,61,30.08,30.02,5,1,6,0.07
2014-7-13,81.2,72.0,64.1,67.7,64.1,60.8,92,77,58,30.04,29.91,7,1,9,0.01
2014-7-14,79.2,70.7,65.8,68.1,64.5,62.7,90,80,63,29.92,29.78,7,1,10,0.00
2014-7-15,75.6,66.9,60.2,66.9,62.1,57.5,93,84,71,29.80,29.66,7,1,11,0.30
2014-7-16,74.6,62.6,53.7,59.2,54.1,50.1,94,75,49,29.89,29.73,6,2,7,0.31
2014-7-17,74.9,63.3,55.5,60.9,54.3,49.2,86,73,50,29.99,29.87,3,1,6,0.00
2014-7-18,62.1,60.2,58.6,60.9,58.3,54.0,97,93,76,30.05,29.97,6,1,10,0.68
2014-7-19,64.1,59.0,58.7,61.9,57.9,57.7,98,94,91,30.04,29.97,5,1,8,0.34
2014-7-20,78.4,66.8,59.7,67.1,62.7,59.1,99,88,63,30.01,29.91,4,0,7,0.36
2014-7-21,72.0,63.9,60.6,67.6,62.0,59.3,98,94,84,30.03,29.92,2,0,4,0.13
2014-7-22,74.5,67.0,62.2,66.8,63.4,60.0,96,89,73,30.06,29.97,4,1,6,0.00
2014-7-23,78.4,67.3,61.9,69.4,64.6,60.9,98,92,71,30.02,29.86,4,0,5,0.29
2014-7-24,79.7,69.2,63.5,68.9,64.2,60.6,98,85,63,29.89,29.77,6,1,11,0.11
2014-7-25,78.9,68.3,60.1,65.6,60.6,56.2,98,78,50,29.93,29.84,8,1,12,0.00
2014-7-26,80.9,70.7,61.4,65.8,61.4,56.1,92,74,55,29.93,29.85,5,1,9,0.00
2014-7-27,81.9,70.6,63.4,68.4,62.7,57.5,97,76,52,29.90,29.74,9,2,18,0.69
2014-7-28,74.3,66.0,60.3,64.9,58.1,53.0,97,77,49,29.83,29.73,9,2,16,0.80
2014-7-29,72.3,61.8,53.6,58.6,53.4,48.6,90,75,51,29.94,29.80,6,1,8,0.80
2014-7-30,72.7,60.7,50.5,58.6,52.2,45.9,92,75,51,30.00,29.93,6,1,8,0.00
2014-7-31,68.1,61.7,57.7,62.4,57.1,52.2,93,85,78,30.02,29.98,3,0,4,0.00
2014-8-1,70.0,61.9,57.1,62.4,58.1,54.9,97,86,76,30.01,29.94,5,1,8,0.00
2014-8-2,73.4,62.5,58.0,64.6,60.2,56.9,98,92,72,30.01,29.96,5,1,10,0.10
2014-8-3,74.2,64.9,57.3,64.9,58.8,55.2,99,82,60,30.03,29.95,6,1,12,0.00
2014-8-4,77.8,64.7,59.7,65.5,59.6,54.4,97,84,59,30.00,29.92,3,1,8,0.13
2014-8-5,78.1,67.7,60.1,65.4,60.3,56.7,95,79,49,29.99,29.91,4,1,8,0.00
2014-8-6,75.9,72.8,63.1,64.4,61.1,59.2,87,67,63,29.97,29.86,2,1,5,0.00
2014-8-7,81.3,70.4,64.1,68.1,61.6,56.5,90,75,50,29.91,29.84,4,1,8,0.00
2014-8-8,68.3,64.4,62.6,66.1,61.6,58.2,98,90,74,29.98,29.87,4,0,5,0.49
2014-8-9,79.8,68.8,62.2,69.1,64.9,61.6,98,88,64,29.97,29.84,7,1,9,0.71
2014-8-10,75.5,66.8,63.3,70.0,65.4,62.7,99,95,79,29.92,29.84,3,0,5,0.06
2014-8-11,80.4,68.8,62.5,69.1,65.3,62.2,99,90,66,29.93,29.78,5,1,10,0.88
2014-8-12,77.0,67.8,62.1,69.5,62.9,59.8,99,85,60,29.83,29.70,13,1,13,0.06
2014-8-13,70.1,62.0,53.6,60.9,56.1,51.6,95,82,61,29.94,29.76,5,1,9,0.06
2014-8-14,75.9,63.7,54.1,61.7,56.9,51.9,96,80,54,29.98,29.88,5,1,7,0.00
2014-8-15,78.5,65.2,56.8,63.6,58.3,55.4,96,80,49,29.94,29.87,5,1,6,0.01
2014-8-16,75.8,66.3,57.7,64.2,59.2,54.5,92,79,60,29.95,29.89,4,1,7,0.00
2014-8-17,77.1,69.1,63.8,66.3,61.8,58.6,89,78,63,29.95,29.84,4,1,10,0.00
2014-8-18,73.8,67.4,63.9,66.3,63.6,61.7,97,88,68,29.86,29.73,10,1,20,0.26
2014-8-19,79.0,68.7,61.8,67.7,63.5,59.7,95,84,64,29.82,29.74,7,1,10,0.00
2014-8-20,82.3,70.1,61.4,69.8,64.0,57.8,96,82,59,30.03,29.81,5,1,9,0.04
2014-8-21,82.7,70.8,60.1,70.6,63.2,55.3,95,78,61,30.04,29.96,4,1,11,0.00
2014-8-22,83.1,73.5,66.2,70.0,65.8,61.8,91,77,58,30.01,29.85,6,1,9,0.00
2014-8-23,81.5,72.3,66.0,70.4,65.2,61.4,89,79,63,29.90,29.79,9,1,10,0.00
2014-8-24,77.6,69.5,63.8,68.3,64.6,61.5,96,85,66,29.93,29.79,8,1,10,0.00
2014-8-25,74.0,65.8,60.3,66.3,61.0,58.7,96,85,67,30.01,29.89,4,1,9,0.00
2014-8-26,72.3,63.6,54.4,61.8,57.5,52.5,95,82,61,30.05,29.98,4,1,10,0.00
2014-8-27,75.4,65.9,57.5,61.2,57.0,51.6,96,75,46,30.02,29.93,8,1,10,0.01
2014-8-28,82.6,70.0,61.5,66.8,60.7,55.4,97,73,50,29.97,29.87,8,1,9,1.10
2014-8-29,80.1,71.3,64.5,66.5,62.7,59.1,95,76,50,30.01,29.91,4,1,7,0.00
2014-8-30,79.7,70.2,63.2,66.9,62.9,58.8,93,78,60,30.04,29.96,7,1,11,0.01
2014-8-31,79.7,69.5,61.8,70.0,64.7,61.0,99,86,67,30.04,29.96,11,1,13,0.68
2014-9-1,82.4,70.5,65.2,68.7,64.4,61.9,95,82,56,30.02,29.94,6,1,11,0.35
2014-9-2,81.2,72.5,66.1,68.7,65.1,62.4,91,78,57,29.99,29.84,6,1,10,0.00
2014-9-3,79.4,69.3,61.7,70.0,64.1,59.4,95,84,57,29.98,29.86,5,1,10,0.12
2014-9-4,74.5,68.0,64.0,69.1,64.6,60.5,96,89,77,30.07,29.96,4,0,6,0.01
2014-9-5,77.4,67.7,62.3,69.3,64.5,61.0,97,90,73,30.10,29.98,3,1,6,0.20
2014-9-6,77.0,67.5,62.6,69.9,64.5,61.1,98,90,75,30.00,29.87,4,1,5,0.21
2014-9-7,77.9,67.4,61.1,68.2,62.6,57.9,96,85,67,29.94,29.85,6,1,10,0.08
2014-9-8,76.5,65.2,61.0,67.4,63.1,60.1,98,93,69,29.99,29.91,5,1,10,0.54
2014-9-9,78.8,66.5,60.0,68.8,63.1,59.4,99,90,64,30.02,29.92,8,1,8,0.19
2014-9-10,72.8,65.1,61.3,65.1,61.7,59.0,97,89,71,29.99,29.91,7,1,7,0.01
2014-9-11,75.3,67.3,62.9,68.2,64.5,60.7,98,91,77,29.95,29.88,6,1,10,0.32
2014-9-12,79.3,68.8,63.0,69.7,64.9,62.3,99,89,59,29.96,29.86,5,1,9,0.26
2014-9-13,76.2,67.2,59.9,69.9,64.0,58.5,99,90,73,30.03,29.89,4,1,6,0.00
2014-9-14,67.7,63.7,60.4,65.9,62.5,59.2,99,96,90,30.08,30.00,3,0,4,0.04
2014-9-15,73.9,65.1,60.2,64.8,62.0,59.3,99,90,70,30.08,29.98,7,1,11,0.06
2014-9-16,75.7,66.1,61.3,65.8,61.7,58.2,97,86,67,30.02,29.85,6,1,12,0.01
2014-9-17,74.0,64.2,57.7,63.0,58.5,51.9,98,83,47,29.86,29.75,6,1,7,0.00
2014-9-18,73.0,61.9,56.3,61.5,57.0,55.0,98,85,59,29.93,29.80,8,1,8,0.00
2014-9-19,71.0,61.4,55.8,62.0,56.9,52.5,97,86,62,30.09,29.93,4,1,7,0.00
2014-9-20,72.8,62.5,55.4,60.1,56.0,52.3,95,80,60,30.09,29.93,4,1,6,0.00
2014-9-21,72.8,63.1,56.5,63.4,58.7,54.3,96,86,69,29.96,29.79,10,2,13,0.28
2014-9-22,63.9,57.1,51.0,58.7,48.2,35.0,95,74,35,30.07,29.83,5,2,12,0.01
2014-9-23,66.1,55.2,46.9,55.5,49.4,43.6,94,81,63,30.18,30.06,5,1,8,0.00
2014-9-24,66.0,56.3,48.1,53.9,46.2,39.7,95,72,43,30.23,30.16,6,1,10,0.00
2014-9-25,67.1,59.8,54.6,60.1,56.7,54.0,99,90,76,30.17,30.06,5,2,9,0.00
2014-9-26,69.2,60.5,55.8,61.3,56.6,54.2,96,87,74,30.11,30.03,5,1,12,0.01
2014-9-27,69.9,60.1,53.5,60.3,55.7,52.1,96,86,67,30.11,30.03,4,1,8,0.01
2014-9-28,69.5,60.1,52.6,61.2,56.2,51.5,97,87,72,30.09,29.99,3,0,4,0.01
2014-9-29,62.6,59.3,55.3,60.5,57.4,54.2,97,94,89,29.98,29.85,3,0,4,0.11
2014-9-30,73.3,60.3,51.7,62.2,55.5,51.1,99,86,60,29.90,29.81,3,0,5,0.01
2014-10-1,71.6,62.2,55.7,61.1,55.4,52.3,95,79,54,29.96,29.84,3,1,10,0.00
2014-10-2,73.5,63.6,56.3,60.2,55.8,52.6,90,77,49,30.02,29.91,4,1,9,0.00
2014-10-3,68.0,60.8,56.2,63.3,57.2,52.7,96,87,77,29.92,29.67,11,2,16,0.14
2014-10-4,56.1,45.5,37.6,53.5,35.1,23.4,91,69,38,29.86,29.67,9,2,15,0.00
2014-10-5,56.9,45.0,33.2,38.6,31.4,21.6,81,60,37,29.99,29.86,9,1,11,0.00
2014-10-6,59.0,51.6,46.7,51.3,45.3,38.0,96,79,65,30.00,29.88,6,2,13,1.09
2014-10-7,59.3,54.7,49.2,57.0,52.4,48.0,98,92,85,30.03,29.92,11,1,14,0.54
2014-10-8,71.0,62.1,57.4,60.3,55.2,48.7,98,80,52,30.04,29.93,9,2,14,0.69
2014-10-9,69.1,60.6,55.1,59.6,52.0,42.8,96,74,57,30.07,29.99,6,1,10,0.03
2014-10-10,70.1,63.0,56.9,62.2,59.2,55.2,97,88,72,30.01,29.90,9,1,13,0.02
2014-10-11,68.2,63.4,60.2,62.2,59.2,57.3,94,87,75,29.93,29.84,6,1,11,0.00
2014-10-12,68.4,60.7,58.0,63.0,58.0,56.3,96,90,80,30.03,29.90,6,1,10,0.02
2014-10-13,65.3,60.9,57.8,59.3,57.7,56.3,97,89,74,30.06,29.90,9,2,18,0.06
2014-10-14,62.2,57.6,50.7,60.8,55.6,48.5,98,91,81,29.91,29.59,13,3,33,0.58
2014-10-15,55.0,47.3,45.2,48.7,44.4,43.1,97,89,72,29.78,29.71,8,1,10,0.08
2014-10-16,53.8,46.6,43.2,48.6,45.0,41.8,98,94,79,29.88,29.72,7,1,11,0.15
2014-10-17,65.3,52.6,40.1,52.4,45.1,34.0,98,78,38,29.93,29.81,11,2,15,0.01
2014-10-18,62.2,54.4,44.1,52.8,46.2,37.8,88,74,56,29.89,29.74,15,2,15,0.00
2014-10-19,65.7,50.3,38.9,41.4,35.9,28.8,90,62,27,30.08,29.88,13,2,17,0.00
2014-10-20,61.5,51.4,45.3,46.7,43.2,37.8,88,74,52,30.04,29.90,5,1,10,0.02
2014-10-21,60.4,50.8,43.3,47.8,42.2,36.6,92,74,44,29.93,29.83,9,2,16,0.01
2014-10-22,51.8,43.0,37.9,37.4,34.7,32.5,87,73,51,30.11,29.91,10,3,15,0.00
2014-10-23,59.5,47.6,36.0,34.3,29.1,21.5,86,52,24,30.10,30.00,16,3,16,0.00
2014-10-24,63.8,52.8,43.1,36.8,27.2,12.0,63,38,24,30.02,29.91,4,1,8,0.00
2014-10-25,67.7,53.4,41.6,50.6,35.6,12.8,85,53,27,30.00,29.92,6,1,7,0.00
2014-10-26,71.4,60.1,52.7,51.3,44.7,32.9,93,63,25,29.95,29.86,9,2,21,0.00
2014-10-27,77.3,64.3,55.8,48.8,42.2,34.3,67,46,25,30.01,29.92,9,1,9,0.00
2014-10-28,71.2,61.9,54.3,55.7,50.5,45.4,87,68,41,30.00,29.93,11,1,15,0.00
2014-10-29,59.9,53.0,44.1,55.0,48.9,35.7,95,86,72,29.95,29.84,6,1,12,0.03
2014-10-30,58.3,46.6,37.3,38.3,34.7,29.7,87,65,34,30.00,29.90,7,1,10,0.00
2014-10-31,51.6,40.8,32.3,40.3,35.1,26.8,95,79,57,29.90,29.74,6,1,10,0.05
2014-11-1,32.9,30.1,26.9,29.0,26.4,23.5,93,86,77,30.18,29.71,12,3,23,0.04
2014-11-2,42.3,33.0,24.3,23.7,14.0,-3.3,86,51,15,30.41,30.15,13,4,21,0.01
2014-11-3,61.1,48.2,33.7,22.8,9.4,-7.6,33,21,11,30.44,30.31,5,1,6,0.00
2014-11-4,66.3,57.1,49.4,20.9,12.1,-7.8,30,18,7,30.31,30.10,10,1,10,0.00
2014-11-5,56.9,51.8,48.9,47.3,38.4,17.6,84,63,27,30.18,30.05,6,1,10,0.00
2014-11-6,57.9,49.3,37.2,51.0,41.4,26.5,97,76,44,30.04,29.75,17,3,20,0.32
2014-11-7,49.5,39.2,32.0,33.3,30.0,27.4,85,70,52,30.05,29.87,10,2,24,0.00
2014-11-8,56.0,44.8,36.5,35.3,32.1,26.5,81,63,32,30.00,29.87,6,1,9,0.00
2014-11-9,59.9,47.6,37.7,37.5,30.5,18.5,81,55,20,29.97,29.86,5,1,7,0.00
2014-11-10,64.4,51.7,44.3,38.6,34.0,21.6,69,52,31,30.00,29.92,8,1,9,0.00
2014-11-11,67.9,56.5,47.1,46.3,19.8,-2.4,72,26,10,29.98,29.85,7,1,12,0.00
2014-11-12,63.1,53.5,41.5,51.4,47.0,39.6,95,80,57,29.93,29.85,7,1,10,0.00
2014-11-13,42.1,35.9,24.0,41.1,34.8,22.8,98,96,90,30.01,29.91,6,1,9,0.01
2014-11-14,31.9,22.3,16.9,22.7,17.7,13.4,95,83,61,30.30,30.00,8,1,10,0.00
2014-11-15,43.1,30.2,19.4,23.9,18.6,14.4,83,64,36,30.40,30.26,7,0,8,0.00
2014-11-16,47.5,39.6,29.3,45.6,30.1,18.7,96,70,51,30.28,29.93,7,1,15,0.13
2014-11-17,51.2,39.6,18.4,49.8,37.9,13.6,98,94,81,29.93,29.58,14,2,20,1.01
2014-11-18,23.2,16.0,10.9,13.4,8.1,3.0,90,71,54,30.33,29.85,9,2,15,0.00
2014-11-19,37.0,25.5,13.2,17.5,8.3,-1.1,66,49,26,30.40,30.24,12,2,16,0.00
2014-11-20,43.7,35.5,29.7,28.2,22.9,17.3,76,61,39,30.25,30.08,21,3,24,0.00
2014-11-21,51.0,43.6,37.9,24.1,22.5,19.3,54,43,29,30.41,30.07,5,3,22,0.00
2014-11-22,52.1,42.0,33.3,40.3,27.9,19.4,83,58,37,30.42,30.20,9,1,13,0.00
2014-11-23,54.7,49.3,44.5,51.6,46.8,37.9,96,91,77,30.21,29.58,13,3,19,0.99
2014-11-24,61.4,54.4,47.9,49.3,43.9,37.3,91,69,47,29.84,29.61,15,2,26,0.00
2014-11-25,52.4,44.0,37.4,41.0,32.4,24.5,88,66,39,30.01,29.83,7,1,10,0.00
2014-11-26,44.2,37.7,33.3,36.5,27.4,12.3,97,69,31,29.97,29.83,9,1,17,0.24
2014-11-27,33.1,28.0,22.7,29.0,24.6,16.6,95,87,73,30.27,29.90,10,2,17,0.01
2014-11-28,38.2,27.5,15.6,24.3,15.7,10.5,89,64,36,30.38,30.26,9,1,9,0.10
2014-11-29,48.3,42.0,32.8,38.3,29.4,15.9,79,61,45,30.27,30.14,10,2,13,0.00
2014-11-30,57.2,49.7,43.3,44.6,41.1,36.9,85,73,54,30.25,30.15,9,2,17,0.00
2014-12-1,57.7,51.5,46.9,49.0,46.4,42.1,90,83,71,30.31,30.22,9,1,10,0.00
2014-12-2,57.8,52.9,49.5,50.3,47.6,45.7,93,82,65,30.25,30.12,15,1,15,0.00
2014-12-3,53.9,50.6,46.9,50.0,46.4,43.1,96,86,75,30.17,30.11,10,2,21,0.05
2014-12-4,57.5,50.6,45.7,48.9,46.2,43.1,92,85,71,30.26,30.16,4,1,8,0.00
2014-12-5,53.8,49.6,47.2,51.6,47.6,44.7,98,93,81,30.29,30.18,3,0,10,0.09
2014-12-6,51.2,47.0,36.4,50.7,45.7,35.2,98,94,85,30.18,29.96,17,3,24,0.28
2014-12-7,48.4,38.9,32.3,35.5,25.3,6.1,97,63,24,30.30,30.15,23,4,31,0.00
2014-12-8,39.0,34.0,28.6,30.1,21.4,10.9,88,61,35,30.31,30.12,3,1,7,0.00
2014-12-9,36.1,32.9,29.7,31.7,28.6,24.9,92,84,69,30.12,29.96,13,2,19,0.00
2014-12-10,36.7,29.6,22.9,28.4,24.7,20.7,91,82,69,30.09,30.01,12,3,17,0.01
2014-12-11,38.9,27.5,19.9,26.3,19.9,3.2,95,75,25,30.23,30.02,4,1,8,0.00
2014-12-12,47.9,37.1,23.1,17.9,12.1,3.8,79,36,26,30.32,30.21,6,1,8,0.00
2014-12-13,54.1,42.6,33.4,19.6,11.8,-4.8,43,28,13,30.21,30.08,5,1,8,0.00
2014-12-14,59.9,47.7,38.9,20.2,15.1,9.4,36,27,18,30.08,29.97,4,1,4,0.00
2014-12-15,59.9,51.2,44.4,37.6,19.1,11.1,74,30,17,29.98,29.89,6,1,10,0.05
2014-12-16,51.2,44.9,34.9,46.6,39.4,32.0,97,82,60,29.99,29.77,10,2,23,0.15
2014-12-17,47.2,37.2,31.1,38.1,32.3,27.1,95,83,64,30.14,29.99,3,1,8,0.01
2014-12-18,48.1,37.5,30.0,36.9,30.0,16.4,85,75,49,30.14,30.03,7,1,12,0.00
2014-12-19,46.8,36.8,28.1,35.1,31.2,26.1,94,81,61,30.12,30.03,4,0,7,0.00
2014-12-20,38.8,37.6,34.9,38.3,35.9,32.4,98,94,81,30.14,30.08,3,0,3,0.05
2014-12-21,43.9,39.4,36.2,38.4,36.9,34.2,98,91,79,30.17,30.05,4,0,6,0.00
2014-12-22,50.0,43.2,37.0,47.1,41.3,36.2,98,93,78,30.05,29.83,11,1,11,0.15
2014-12-23,55.5,50.3,46.1,53.4,49.1,45.3,99,96,91,29.89,29.70,16,2,25,1.12
2014-12-24,56.4,50.3,36.0,54.3,48.6,33.1,98,94,87,29.72,29.49,14,2,18,0.44
2014-12-25,45.0,36.6,29.8,33.3,29.7,19.1,94,77,45,30.22,29.65,9,1,18,0.00
2014-12-26,53.1,44.3,35.3,25.9,15.0,3.0,64,31,21,30.31,30.20,4,1,8,0.00
2014-12-27,56.5,50.9,44.0,27.1,13.2,-1.7,36,22,11,30.26,30.10,10,1,12,0.00
2014-12-28,52.8,50.2,47.2,51.8,45.3,13.8,98,86,21,30.09,29.90,5,1,13,0.19
2014-12-29,51.6,47.2,44.5,47.7,45.0,43.4,98,92,78,30.01,29.91,8,1,12,0.39
2014-12-30,52.3,43.2,29.2,51.2,41.0,27.7,96,92,73,30.31,29.96,5,1,10,0.01
2014-12-31,38.9,30.9,26.5,30.7,23.6,14.4,97,76,46,30.38,30.29,8,1,20,0.00
2015-1-1,52.3,43.7,28.3,51.2,37.7,14.8,96,80,52,30.31,29.96,15,2,21,0.00
2015-1-2,47.8,44.1,39.0,47.5,42.2,33.9,99,93,82,30.28,30.20,12,1,15,0.26